createdAt,value
2022-10-17T00:00:57.333Z,101906.91
2022-10-17T00:03:59.815Z,101893.97
2022-10-17T00:07:02.295Z,101904.66
2022-10-17T00:10:06.351Z,101892.13
2022-10-17T00:13:09.758Z,101900.53
2022-10-17T00:16:12.317Z,101917.22
2022-10-17T00:19:14.638Z,101911.50
2022-10-17T00:22:17.066Z,101900.47
2022-10-17T00:25:19.705Z,101915.63
2022-10-17T00:28:22.146Z,101920.63
2022-10-17T00:31:25.887Z,101910.09
2022-10-17T00:34:30.044Z,101900.97
2022-10-17T00:37:32.951Z,101917.88
2022-10-17T00:40:35.815Z,101923.47
2022-10-17T00:44:01.151Z,101941.97
2022-10-17T00:47:06.836Z,101921.47
2022-10-17T00:50:12.017Z,101939.13
2022-10-17T00:53:15.150Z,101934.88
2022-10-17T00:56:19.843Z,101914.78
2022-10-17T00:59:23.166Z,101925.03
2022-10-17T01:02:25.699Z,101923.38
2022-10-17T01:05:29.411Z,101928.66
2022-10-17T01:08:32.087Z,101921.81
2022-10-17T01:11:40.263Z,101932.66
2022-10-17T01:14:46.600Z,101924.41
2022-10-17T01:18:14.207Z,101924.63
2022-10-17T01:21:27.711Z,101933.38
2022-10-17T01:24:50.311Z,101931.63
2022-10-17T01:28:04.123Z,101917.97
2022-10-17T01:31:14.876Z,101906.19
2022-10-17T01:34:30.975Z,101918.94
2022-10-17T01:37:40.926Z,101929.59
2022-10-17T01:40:51.523Z,101933.38
2022-10-17T01:44:21.354Z,101914.94
2022-10-17T01:47:28.448Z,101931.84
2022-10-17T01:50:48.626Z,101915.03
2022-10-17T01:54:21.683Z,101936.41
2022-10-17T01:57:31.821Z,101930.81
2022-10-17T02:00:36.219Z,101915.03
2022-10-17T02:03:41.262Z,101929.25
2022-10-17T02:06:43.712Z,101905.00
2022-10-17T02:09:48.609Z,101919.22
2022-10-17T02:13:04.960Z,101916.59
2022-10-17T02:16:15.365Z,101914.25
2022-10-17T02:19:42.904Z,101943.53
2022-10-17T02:22:51.510Z,101950.16
2022-10-17T02:26:18.081Z,101934.31
2022-10-17T02:29:29.256Z,101935.88
2022-10-17T02:32:38.611Z,101942.47
2022-10-17T02:35:44.736Z,101948.81
2022-10-17T02:38:49.135Z,101942.97
2022-10-17T02:41:52.521Z,101942.47
2022-10-17T02:44:55.481Z,101943.78
2022-10-17T02:48:16.730Z,101959.03
2022-10-17T02:51:44.115Z,101945.09
2022-10-17T02:54:54.032Z,101947.47
2022-10-17T02:58:19.854Z,101958.81
2022-10-17T03:01:22.608Z,101962.00
2022-10-17T03:04:25.229Z,101964.09
2022-10-17T03:07:27.594Z,101970.19
2022-10-17T03:10:31.827Z,101955.69
2022-10-17T03:13:36.333Z,101951.44
2022-10-17T03:16:42.290Z,101968.84
2022-10-17T03:19:44.631Z,101963.50
2022-10-17T03:22:47.011Z,101970.38
2022-10-17T03:25:49.410Z,101965.06
2022-10-17T03:28:54.435Z,101963.22
2022-10-17T03:31:57.927Z,101973.00
2022-10-17T03:35:00.875Z,101963.00
2022-10-17T03:38:03.394Z,101974.34
2022-10-17T03:41:06.515Z,101962.22
2022-10-17T03:44:09.168Z,101983.59
2022-10-17T03:47:14.094Z,101973.59
2022-10-17T03:50:17.300Z,101976.78
2022-10-17T03:53:20.057Z,101964.13
2022-10-17T03:56:24.157Z,101995.81
2022-10-17T03:59:33.010Z,101980.00
2022-10-17T04:02:40.796Z,101997.94
2022-10-17T04:05:45.037Z,101984.22
2022-10-17T04:08:48.132Z,101991.38
2022-10-17T04:11:56.958Z,101997.94
2022-10-17T04:14:59.880Z,102004.56
2022-10-17T04:18:02.721Z,102006.66
2022-10-17T04:21:07.117Z,102006.66
2022-10-17T04:24:11.555Z,102016.44
2022-10-17T04:27:34.267Z,101997.69
2022-10-17T04:30:39.187Z,102000.06
2022-10-17T04:33:45.069Z,102008.53
2022-10-17T04:36:47.969Z,102018.56
2022-10-17T04:39:50.802Z,102012.47
2022-10-17T04:42:53.320Z,102005.63
2022-10-17T04:46:01.324Z,102009.84
2022-10-17T04:49:04.797Z,102020.13
2022-10-17T04:52:07.754Z,102005.06
2022-10-17T04:55:16.028Z,102033.88
2022-10-17T04:58:20.088Z,102029.63
2022-10-17T05:01:23.692Z,102017.22
2022-10-17T05:04:28.669Z,102029.09
2022-10-17T05:07:31.624Z,102024.59
2022-10-17T05:10:39.513Z,102052.84
2022-10-17T05:13:43.176Z,102043.81
2022-10-17T05:16:46.188Z,102003.34
2022-10-17T05:19:49.199Z,102025.00
2022-10-17T05:22:53.732Z,102053.25
2022-10-17T05:25:56.945Z,102047.94
2022-10-17T05:29:02.915Z,102056.94
2022-10-17T05:32:07.226Z,102055.34
2022-10-17T05:35:10.699Z,102070.13
2022-10-17T05:38:14.453Z,102073.59
2022-10-17T05:41:19.569Z,102073.84
2022-10-17T05:44:22.152Z,102091.88
2022-10-17T05:47:29.784Z,102091.06
2022-10-17T05:50:34.594Z,102089.50
2022-10-17T05:53:42.789Z,102088.75
2022-10-17T05:56:52.597Z,102082.44
2022-10-17T05:59:57.192Z,102098.53
2022-10-17T06:02:59.769Z,102111.97
2022-10-17T06:06:11.430Z,102108.78
2022-10-17T06:09:17.889Z,102091.91
2022-10-17T06:12:23.256Z,102128.09
2022-10-17T06:15:25.939Z,102118.06
2022-10-17T06:18:36.036Z,102121.22
2022-10-17T06:21:38.960Z,102127.31
2022-10-17T06:24:50.200Z,102135.78
2022-10-17T06:30:57.614Z,102132.06
2022-10-17T06:34:00.407Z,102153.13
2022-10-17T06:37:04.478Z,102131.97
2022-10-17T06:40:10.407Z,102147.25
2022-10-17T06:43:14.083Z,102146.13
2022-10-17T06:46:42.470Z,102158.22
2022-10-17T06:49:45.171Z,102139.59
2022-10-17T06:53:19.971Z,102162.97
2022-10-17T06:56:25.223Z,102152.06
2022-10-17T06:59:35.288Z,102176.19
2022-10-17T07:02:44.372Z,102168.38
2022-10-17T07:05:52.309Z,102172.19
2022-10-17T07:08:55.780Z,102177.59
2022-10-17T07:11:59.035Z,102170.69
2022-10-17T07:15:04.316Z,102175.06
2022-10-17T07:18:06.858Z,102177.75
2022-10-17T07:21:09.608Z,102178.56
2022-10-17T07:24:15.428Z,102195.78
2022-10-17T07:27:22.395Z,102205.19
2022-10-17T07:30:27.310Z,102186.06
2022-10-17T07:33:43.969Z,102208.59
2022-10-17T07:36:46.519Z,102189.69
2022-10-17T07:39:50.371Z,102192.00
2022-10-17T07:42:53.101Z,102204.16
2022-10-17T07:45:56.373Z,102218.16
2022-10-17T07:48:59.004Z,102196.00
2022-10-17T07:52:01.584Z,102212.84
2022-10-17T07:55:04.328Z,102200.84
2022-10-17T07:58:07.750Z,102201.84
2022-10-17T08:01:15.484Z,102212.72
2022-10-17T08:04:18.721Z,102203.97
2022-10-17T08:07:25.534Z,102215.78
2022-10-17T08:10:31.874Z,102214.75
2022-10-17T08:13:34.917Z,102208.38
2022-10-17T08:16:37.267Z,102191.97
2022-10-17T08:19:40.483Z,102212.84
2022-10-17T08:22:42.984Z,102211.59
2022-10-17T08:25:45.348Z,102209.56
2022-10-17T08:28:48.376Z,102196.31
2022-10-17T08:31:54.100Z,102204.44
2022-10-17T08:35:01.281Z,102207.47
2022-10-17T08:38:03.786Z,102212.34
2022-10-17T08:41:15.074Z,102210.50
2022-10-17T08:44:17.486Z,102213.78
2022-10-17T08:47:25.341Z,102204.66
2022-10-17T08:50:27.861Z,102210.31
2022-10-17T08:53:34.850Z,102186.59
2022-10-17T08:56:48.951Z,102207.50
2022-10-17T08:59:53.793Z,102202.13
2022-10-17T09:03:17.383Z,102202.03
2022-10-17T09:06:32.762Z,102196.22
2022-10-17T09:09:54.413Z,102207.97
2022-10-17T09:13:07.607Z,102210.53
2022-10-17T09:16:13.290Z,102218.97
2022-10-17T09:19:21.088Z,102212.06
2022-10-17T09:22:25.521Z,102202.69
2022-10-17T09:25:33.625Z,102198.59
2022-10-17T09:28:38.958Z,102212.47
2022-10-17T09:31:45.846Z,102178.97
2022-10-17T09:34:48.404Z,102214.97
2022-10-17T09:41:57.141Z,102199.59
2022-10-17T09:45:18.557Z,102209.47
2022-10-17T09:48:28.545Z,102206.69
2022-10-17T09:51:32.365Z,102192.13
2022-10-17T09:54:49.824Z,102204.88
2022-10-17T09:57:55.179Z,102216.03
2022-10-17T10:01:20.984Z,102207.81
2022-10-17T10:04:30.184Z,102187.38
2022-10-17T10:07:38.499Z,102200.94
2022-10-17T10:10:43.299Z,102185.13
2022-10-17T10:13:48.319Z,102205.31
2022-10-17T10:16:53.581Z,102181.78
2022-10-17T10:19:56.483Z,102187.41
2022-10-17T10:23:15.953Z,102205.44
2022-10-17T10:26:32.516Z,102178.00
2022-10-17T10:29:38.200Z,102185.59
2022-10-17T10:32:41.041Z,102181.13
2022-10-17T10:35:52.786Z,102189.63
2022-10-17T10:38:58.325Z,102184.56
2022-10-17T10:42:03.701Z,102191.34
2022-10-17T10:45:47.905Z,102178.81
2022-10-17T10:49:00.242Z,102199.78
2022-10-17T10:52:03.300Z,102198.03
2022-10-17T10:55:44.798Z,102192.03
2022-10-17T10:59:08.991Z,102171.72
2022-10-17T11:02:24.641Z,102172.03
2022-10-17T11:05:32.896Z,102177.16
2022-10-17T11:08:44.601Z,102162.16
2022-10-17T11:11:55.947Z,102177.88
2022-10-17T11:15:01.757Z,102160.59
2022-10-17T11:18:11.825Z,102170.09
2022-10-17T11:21:20.047Z,102172.47
2022-10-17T11:24:36.600Z,102144.72
2022-10-17T11:27:39.969Z,102159.50
2022-10-17T11:30:48.230Z,102166.56
2022-10-17T11:33:52.531Z,102165.56
2022-10-17T11:37:02.984Z,102158.00
2022-10-17T11:40:23.583Z,102156.09
2022-10-17T11:43:37.940Z,102154.34
2022-10-17T11:46:42.382Z,102158.47
2022-10-17T11:49:52.281Z,102137.50
2022-10-17T11:53:00.357Z,102142.44
2022-10-17T11:56:03.082Z,102142.88
2022-10-17T11:59:18.087Z,102150.91
2022-10-17T12:03:02.473Z,102156.59
2022-10-17T12:06:10.729Z,102141.78
2022-10-17T12:09:21.641Z,102142.50
2022-10-17T12:12:26.005Z,102134.69
2022-10-17T12:15:29.634Z,102137.38
2022-10-17T12:18:32.084Z,102105.06
2022-10-17T12:21:56.140Z,102135.09
2022-10-17T12:25:03.216Z,102135.03
2022-10-17T12:28:31.151Z,102131.78
2022-10-17T12:31:34.371Z,102110.22
2022-10-17T12:34:37.390Z,102114.69
2022-10-17T12:37:42.885Z,102128.25
2022-10-17T12:40:48.962Z,102125.00
2022-10-17T12:43:52.964Z,102115.94
2022-10-17T12:47:10.433Z,102121.22
2022-10-17T12:50:51.071Z,102114.47
2022-10-17T12:54:12.625Z,102107.84
2022-10-17T12:57:39.382Z,102113.25
2022-10-17T13:01:11.709Z,102114.53
2022-10-17T13:04:14.402Z,102088.53
2022-10-17T13:07:20.504Z,102106.09
2022-10-17T13:10:29.311Z,102112.38
2022-10-17T13:13:41.451Z,102093.59
2022-10-17T13:17:03.629Z,102091.50
2022-10-17T13:20:28.912Z,102102.81
2022-10-17T13:23:36.075Z,102088.47
2022-10-17T13:26:45.229Z,102104.81
2022-10-17T13:29:47.751Z,102079.97
2022-10-17T13:32:50.204Z,102105.94
2022-10-17T13:36:00.297Z,102095.50
2022-10-17T13:39:12.424Z,102089.97
2022-10-17T13:42:29.887Z,102096.22
2022-10-17T13:45:34.534Z,102095.88
2022-10-17T13:48:37.670Z,102083.78
2022-10-17T13:51:44.127Z,102095.84
2022-10-17T13:54:48.659Z,102087.28
2022-10-17T13:57:52.451Z,102098.56
2022-10-17T14:00:55.041Z,102080.72
2022-10-17T14:04:08.932Z,102094.72
2022-10-17T14:07:25.656Z,102081.13
2022-10-17T14:10:36.969Z,102090.41
2022-10-17T14:13:39.331Z,102092.34
2022-10-17T14:16:42.780Z,102081.47
2022-10-17T14:19:51.457Z,102076.34
2022-10-17T14:23:21.588Z,102066.69
2022-10-17T14:26:23.368Z,102077.56
2022-10-17T14:29:27.110Z,102085.75
2022-10-17T14:32:35.569Z,102076.81
2022-10-17T14:35:41.905Z,102079.13
2022-10-17T14:38:47.180Z,102068.22
2022-10-17T14:41:50.282Z,102064.69
2022-10-17T14:44:53.974Z,102060.34
2022-10-17T14:48:02.200Z,102064.19
2022-10-17T14:51:12.113Z,102074.19
2022-10-17T14:54:27.372Z,102065.19
2022-10-17T14:57:45.062Z,102083.06
2022-10-17T15:00:47.599Z,102079.53
2022-10-17T15:03:50.013Z,102056.75
2022-10-17T15:06:55.496Z,102068.59
2022-10-17T15:09:59.734Z,102073.91
2022-10-17T15:13:27.231Z,102081.69
2022-10-17T15:16:31.700Z,102079.09
2022-10-17T15:19:34.361Z,102083.28
2022-10-17T15:22:36.982Z,102073.34
2022-10-17T15:25:39.730Z,102081.41
2022-10-17T15:28:42.216Z,102080.13
2022-10-17T15:31:44.905Z,102075.41
2022-10-17T15:34:47.294Z,102073.41
2022-10-17T15:37:50.005Z,102079.28
2022-10-17T15:40:52.448Z,102073.28
2022-10-17T15:43:54.887Z,102080.38
2022-10-17T15:46:57.370Z,102078.38
2022-10-17T15:50:00.354Z,102078.38
2022-10-17T15:53:02.732Z,102091.44
2022-10-17T15:56:05.619Z,102074.91
2022-10-17T15:59:12.827Z,102084.22
2022-10-17T16:02:16.462Z,102095.41
2022-10-17T16:05:25.570Z,102069.72
2022-10-17T16:08:28.318Z,102082.13
2022-10-17T16:11:36.256Z,102083.53
2022-10-17T16:14:38.571Z,102099.50
2022-10-17T16:17:41.476Z,102090.03
2022-10-17T16:20:44.146Z,102104.81
2022-10-17T16:23:46.681Z,102103.00
2022-10-17T16:26:49.612Z,102106.66
2022-10-17T16:29:52.159Z,102094.97
2022-10-17T16:32:55.251Z,102109.72
2022-10-17T16:35:57.879Z,102112.16
2022-10-17T16:39:00.331Z,102105.06
2022-10-17T16:42:02.645Z,102105.66
2022-10-17T16:45:05.493Z,102103.19
2022-10-17T16:48:09.040Z,102094.81
2022-10-17T16:51:12.461Z,102102.22
2022-10-17T16:54:15.162Z,102101.25
2022-10-17T16:57:17.668Z,102114.81
2022-10-17T17:00:20.193Z,102101.63
2022-10-17T17:03:22.644Z,102093.81
2022-10-17T17:06:27.850Z,102110.00
2022-10-17T17:09:30.448Z,102102.16
2022-10-17T17:12:36.177Z,102103.56
2022-10-17T17:15:38.549Z,102104.31
2022-10-17T17:18:41.272Z,102095.53
2022-10-17T17:21:49.957Z,102071.94
2022-10-17T17:24:52.461Z,102118.78
2022-10-17T17:27:55.208Z,102108.91
2022-10-17T17:30:58.031Z,102095.53
2022-10-17T17:34:01.070Z,102104.47
2022-10-17T17:37:03.486Z,102109.81
2022-10-17T17:40:06.696Z,102113.78
2022-10-17T17:43:09.216Z,102104.03
2022-10-17T17:46:12.096Z,102121.31
2022-10-17T17:49:14.448Z,102124.00
2022-10-17T17:52:16.866Z,102109.84
2022-10-17T17:55:19.272Z,102130.19
2022-10-17T17:58:21.591Z,102137.28
2022-10-17T18:01:25.438Z,102116.84
2022-10-17T18:04:28.199Z,102113.78
2022-10-17T18:07:30.552Z,102128.44
2022-10-17T18:10:35.454Z,102117.13
2022-10-17T18:13:37.815Z,102119.28
2022-10-17T18:16:40.433Z,102101.78
2022-10-17T18:19:42.830Z,102111.06
2022-10-17T18:22:45.301Z,102106.59
2022-10-17T18:26:03.383Z,102112.97
2022-10-17T18:29:06.016Z,102102.31
2022-10-17T18:32:08.799Z,102093.81
2022-10-17T18:35:11.194Z,102095.41
2022-10-17T18:38:13.590Z,102109.72
2022-10-17T18:41:18.856Z,102104.06
2022-10-17T18:44:21.482Z,102086.56
2022-10-17T18:47:23.856Z,102090.59
2022-10-17T18:50:26.246Z,102097.38
2022-10-17T18:53:28.899Z,102100.75
2022-10-17T18:56:31.814Z,102079.91
2022-10-17T18:59:34.348Z,102100.44
2022-10-17T19:02:38.065Z,102095.41
2022-10-17T19:05:41.605Z,102067.47
2022-10-17T19:08:44.964Z,102101.94
2022-10-17T19:11:47.696Z,102089.81
2022-10-17T19:14:50.884Z,102102.44
2022-10-17T19:17:53.241Z,102090.06
2022-10-17T19:20:55.668Z,102099.63
2022-10-17T19:24:00.835Z,102106.69
2022-10-17T19:27:05.183Z,102110.75
2022-10-17T19:30:08.328Z,102118.81
2022-10-17T19:33:10.794Z,102091.75
2022-10-17T19:36:13.502Z,102110.44
2022-10-17T19:39:20.988Z,102123.34
2022-10-17T19:42:23.975Z,102123.94
2022-10-17T19:45:26.371Z,102102.53
2022-10-17T19:48:32.069Z,102116.66
2022-10-17T19:51:34.743Z,102114.22
2022-10-17T19:54:38.906Z,102099.50
2022-10-17T19:57:41.283Z,102107.78
2022-10-17T20:00:51.928Z,102104.56
2022-10-17T20:03:54.915Z,102115.66
2022-10-17T20:06:59.855Z,102108.84
2022-10-17T20:10:02.314Z,102108.06
2022-10-17T20:13:04.769Z,102101.38
2022-10-17T20:16:08.905Z,102101.75
2022-10-17T20:19:12.459Z,102121.78
2022-10-17T20:22:14.834Z,102085.97
2022-10-17T20:25:17.248Z,102114.16
2022-10-17T20:28:19.776Z,102110.56
2022-10-17T20:31:22.394Z,102099.81
2022-10-17T20:34:25.043Z,102111.59
2022-10-17T20:37:27.502Z,102111.72
2022-10-17T20:40:35.827Z,102107.22
2022-10-17T20:43:38.367Z,102103.31
2022-10-17T20:46:48.651Z,102089.16
2022-10-17T20:50:03.869Z,102096.84
2022-10-17T20:53:31.775Z,102106.19
2022-10-17T20:56:30.432Z,102112.78
2022-10-17T20:59:34.532Z,102097.41
2022-10-17T21:02:38.840Z,102113.34
2022-10-17T21:05:41.362Z,102093.25
2022-10-17T21:08:44.540Z,102119.91
2022-10-17T21:11:48.210Z,102111.72
2022-10-17T21:14:50.708Z,102111.13
2022-10-17T21:17:53.312Z,102098.50
2022-10-17T21:20:55.842Z,102110.47
2022-10-17T21:24:01.098Z,102109.47
2022-10-17T21:27:03.523Z,102115.50
2022-10-17T21:33:13.783Z,102116.66
2022-10-17T21:36:16.879Z,102111.56
2022-10-17T21:39:19.295Z,102107.31
2022-10-17T21:42:21.596Z,102097.34
2022-10-17T21:45:25.773Z,102108.69
2022-10-17T21:48:28.613Z,102095.66
2022-10-17T21:51:30.923Z,102094.16
2022-10-17T21:54:33.483Z,102103.97
2022-10-17T21:57:35.785Z,102109.03
2022-10-17T22:00:38.342Z,102091.09
2022-10-17T22:03:45.767Z,102081.84
2022-10-17T22:06:51.222Z,102097.22
2022-10-17T22:09:53.736Z,102094.53
2022-10-17T22:12:56.228Z,102084.97
2022-10-17T22:16:02.930Z,102089.50
2022-10-17T22:19:06.722Z,102092.13
2022-10-17T22:22:09.489Z,102069.81
2022-10-17T22:25:11.928Z,102080.50
2022-10-17T22:28:14.254Z,102080.50
2022-10-17T22:31:16.689Z,102086.78
2022-10-17T22:34:19.236Z,102085.03
2022-10-17T22:37:21.591Z,102081.56
2022-10-17T22:40:26.056Z,102077.81
2022-10-17T22:43:28.403Z,102046.03
2022-10-17T22:46:30.799Z,102071.03
2022-10-17T22:49:33.588Z,102086.94
2022-10-17T22:52:35.985Z,102071.31
2022-10-17T22:55:38.311Z,102078.47
2022-10-17T22:58:42.935Z,102059.81
2022-10-17T23:01:45.329Z,102065.84
2022-10-17T23:04:47.715Z,102073.91
2022-10-17T23:07:50.119Z,102081.31
2022-10-17T23:10:52.818Z,102067.88
2022-10-17T23:13:55.136Z,102061.22
2022-10-17T23:16:57.487Z,102058.94
2022-10-17T23:19:59.861Z,102075.31
2022-10-17T23:23:02.223Z,102069.25
2022-10-17T23:26:10.364Z,102053.56
2022-10-17T23:29:12.890Z,102059.94
2022-10-17T23:32:15.556Z,102078.47
2022-10-17T23:35:17.975Z,102070.03
2022-10-17T23:38:20.327Z,102062.56
2022-10-17T23:41:22.928Z,102075.16
2022-10-17T23:44:25.299Z,102065.59
2022-10-17T23:47:27.784Z,102067.19
2022-10-17T23:50:33.359Z,102074.03
2022-10-17T23:53:39.718Z,102060.91
2022-10-17T23:56:42.047Z,102067.50
2022-10-17T23:59:44.391Z,102061.03
